Data for 03/05/2014

Time Sea-Level Adjusted Pressure Absolute Pressure Temperature Relative Humidity Dew Point   
(mb) (inHg) (mb) (inHg) (C) (F) (%) (C) (F)
00:05 1017 30.03 846 24.98 1.6 34.9 51 -7.4 18.7
00:10 1017 30.03 846 24.98 2 35.7 50 -7.4 18.7
00:15 1017 30.03 846 24.98 2.1 35.9 51 -7 19.5
00:20 1017 30.03 846 24.98 1.8 35.3 52 -7 19.4
00:25 1017 30.03 846 24.98 1.6 34.8 53 -7.1 19.3
00:30 1017 30.03 846 24.98 1.6 34.9 53 -7 19.4
00:35 1017 30.03 846 24.98 1.4 34.6 52 -7.3 18.8
00:40 1017 30.03 846 24.98 1.5 34.7 50 -7.7 18.1
00:45 1017 30.03 846 24.98 1.7 35.1 50 -7.5 18.4
00:50 1017 30.03 846 24.98 2.1 35.8 49 -7.4 18.7
00:55 1016 30 846 24.98 2.4 36.4 47 -7.7 18.2
01:00 1016 30 846 24.98 2.7 36.8 48 -7.4 18.8
01:05 1016 30 845 24.95 2.4 36.3 47 -7.7 18.1
01:10 1016 30 845 24.95 2.7 36.8 46 -7.9 17.7
01:15 1016 30 845 24.95 2.5 36.5 47 -7.7 18.1
01:20 1016 30 845 24.95 2.4 36.4 46 -8.1 17.3
01:25 1016 30 845 24.95 2.7 36.9 46 -7.8 18
01:30 1016 30 845 24.95 2.7 36.8 46 -7.7 18.1
01:35 1016 30 845 24.95 2.4 36.3 47 -7.8 17.9
01:40 1016 30 845 24.95 2.3 36.2 46 -8.1 17.3
01:45 1016 30 845 24.95 2.7 36.8 47 -7.6 18.3
01:50 1016 30 845 24.95 2.5 36.5 47 -7.6 18.3
01:55 1016 30 845 24.95 2.7 36.9 47 -7.5 18.6
02:00 1016 30 845 24.95 2.7 36.9 48 -7.2 19
02:05 1016 30 845 24.95 2.8 37 48 -7.2 19.1
02:10 1016 30 846 24.98 2.9 37.3 47 -7.2 19
02:15 1016 30 846 24.98 3.1 37.6 47 -7.2 19.1
02:20 1016 30 846 24.98 3.2 37.7 47 -7 19.4
02:25 1016 30 846 24.98 3.1 37.5 48 -7 19.4
02:30 1016 30 845 24.95 3 37.3 49 -6.8 19.7
02:35 1016 30 846 24.98 2.7 36.8 49 -6.9 19.6
02:40 1016 30 846 24.98 2.5 36.5 50 -6.9 19.6
02:45 1016 30 846 24.98 2.5 36.6 50 -7 19.5
02:50 1016 30 846 24.98 2.8 37 48 -7.2 19
02:55 1016 30 846 24.98 3.2 37.7 47 -7.1 19.2
03:00 1016 30 846 24.98 3.2 37.7 47 -7.1 19.2
03:05 1017 30.03 846 24.98 3.2 37.7 47 -7 19.5
03:10 1017 30.03 846 24.98 3.1 37.6 48 -6.9 19.5
03:15 1017 30.03 846 24.98 3.1 37.6 48 -6.9 19.5
03:20 1017 30.03 846 24.98 3 37.4 48 -6.9 19.7
03:25 1017 30.03 846 24.98 3 37.4 47 -7.2 19.1
03:30 1017 30.03 846 24.98 3.3 37.9 45 -7.5 18.4
03:35 1017 30.03 846 24.98 3.6 38.5 44 -7.5 18.5
03:40 1017 30.03 846 24.98 3.6 38.5 45 -7.3 18.8
03:45 1017 30.03 846 24.98 3.5 38.3 44 -7.5 18.6
03:50 1017 30.03 846 24.98 3.5 38.4 45 -7.3 18.8
03:55 1017 30.03 846 24.98 3.4 38.1 45 -7.4 18.7
04:00 1017 30.03 846 24.98 3.4 38.2 46 -7.2 19
04:05 1017 30.03 846 24.98 3.3 37.9 45 -7.5 18.5
04:10 1017 30.03 846 24.98 3.5 38.3 44 -7.5 18.4
04:15 1017 30.03 846 24.98 3.7 38.7 43 -7.6 18.3
04:20 1017 30.03 846 24.98 3.5 38.3 45 -7.4 18.7
04:25 1017 30.03 846 24.98 3.3 37.9 46 -7.2 19
04:30 1017 30.03 846 24.98 3.1 37.7 46 -7.4 18.7
04:35 1017 30.03 846 24.98 3.3 37.9 45 -7.5 18.6
04:40 1016 30 846 24.98 3.2 37.8 46 -7.4 18.6
04:45 1016 30 846 24.98 3.2 37.8 45 -7.5 18.5
04:50 1016 30 846 24.98 3.3 38 44 -7.8 18
04:55 1016 30 846 24.98 3.6 38.4 44 -7.6 18.3
05:00 1016 30 846 24.98 3.6 38.4 43 -7.7 18.1
05:05 1016 30 846 24.98 3.8 38.9 41 -8.3 17.1
05:10 1016 30 846 24.98 4 39.2 42 -7.8 18
05:15 1016 30 846 24.98 3.9 39 42 -7.9 17.8
05:20 1016 30 846 24.98 4 39.3 41 -8 17.7
05:25 1016 30 845 24.95 4.2 39.6 41 -8 17.6
05:30 1016 30 845 24.95 4.3 39.8 41 -7.9 17.8
05:35 1016 30 845 24.95 4.4 39.9 40 -8 17.6
05:40 1016 30 845 24.95 4.3 39.7 41 -7.7 18.1
05:45 1016 30 845 24.95 4.2 39.5 42 -7.6 18.4
05:50 1016 30 845 24.95 4 39.2 43 -7.4 18.6
05:55 1016 30 845 24.95 3.9 39 44 -7.3 18.9
06:00 1016 30 845 24.95 3.8 38.9 45 -7.2 19.1
06:05 1016 30 845 24.95 3.8 38.8 44 -7.3 18.9
06:10 1016 30 845 24.95 3.8 38.8 44 -7.3 18.9
06:15 1016 30 845 24.95 3.7 38.6 45 -7.1 19.2
06:20 1016 30 845 24.95 3.4 38.1 46 -7.1 19.2
06:25 1016 30 845 24.95 3.2 37.8 47 -7.2 19.1
06:30 1016 30 845 24.95 3.2 37.8 45 -7.6 18.3
06:35 1016 30 845 24.95 3.5 38.3 43 -7.8 18
06:40 1016 30 845 24.95 3.8 38.8 43 -7.8 18
06:45 1016 30 845 24.95 3.6 38.5 44 -7.4 18.6
06:50 1016 30 845 24.95 3.4 38.2 45 -7.5 18.6
06:55 1016 30 845 24.95 3.1 37.6 46 -7.5 18.5
07:00 1016 30 845 24.95 2.9 37.2 47 -7.4 18.8
07:05 1016 30 845 24.95 2.4 36.3 49 -7.2 19.1
07:10 1016 30 845 24.95 1.7 35.1 50 -7.6 18.4
07:15 1016 30 845 24.95 1.4 34.6 50 -8 17.6
07:20 1016 30 845 24.95 1.4 34.5 51 -7.8 18
07:25 1016 30 845 24.95 1.2 34.2 51 -7.9 17.8
07:30 1016 30 845 24.95 1.2 34.2 50 -8.1 17.5
07:35 1016 30 845 24.95 1.3 34.3 50 -8.1 17.5
07:40 1016 30 845 24.95 1.5 34.6 48 -8.3 17
07:45 1016 30 845 24.95 1.5 34.7 49 -8.1 17.4
07:50 1016 30 845 24.95 1.4 34.6 49 -8.1 17.4
07:55 1016 30 845 24.95 1.5 34.7 48 -8.3 17
08:00 1016 30 845 24.95 1.6 34.9 49 -7.9 17.8
08:05 1016 30 845 24.95 1.6 34.9 47 -8.4 16.9
08:10 1016 30 845 24.95 2 35.6 45 -8.7 16.3
08:15 1016 30 845 24.95 1.8 35.3 52 -7.1 19.1
08:20 1016 30 845 24.95 0.6 33.1 54 -7.7 18.2
08:25 1016 30 845 24.95 0.3 32.6 55 -7.7 18.1
08:30 1016 30 845 24.95 0.7 33.2 54 -7.7 18.1
08:35 1016 30 845 24.95 0.9 33.6 53 -7.7 18.1
08:40 1016 30 845 24.95 1 33.8 52 -7.9 17.8
08:45 1016 30 845 24.95 1.2 34.1 52 -7.6 18.3
08:50 1016 30 845 24.95 1.2 34.1 51 -7.9 17.8
08:55 1015 29.97 845 24.95 1.6 34.8 50 -7.8 18
09:00 1015 29.97 845 24.95 1.8 35.2 50 -7.6 18.3
09:05 1016 30 845 24.95 2.2 36 48 -7.8 18
09:10 1016 30 845 24.95 2.8 37.1 46 -7.7 18.2
09:15 1016 30 845 24.95 3.4 38.2 43 -7.9 17.8
09:20 1016 30 845 24.95 3.8 38.9 41 -8.2 17.3
09:25 1016 30 845 24.95 4.2 39.6 41 -8.1 17.5
09:30 1015 29.97 845 24.95 4.2 39.5 40 -8.1 17.4
09:35 1015 29.97 845 24.95 4.1 39.4 41 -7.9 17.7
09:40 1016 30 845 24.95 4.5 40 40 -8 17.6
09:45 1015 29.97 845 24.95 4.7 40.4 39 -8.3 17.1
09:50 1015 29.97 845 24.95 5.3 41.6 37 -8.3 17
09:55 1015 29.97 845 24.95 5.7 42.2 37 -8.1 17.5
10:00 1015 29.97 845 24.95 6.4 43.5 33 -8.7 16.3
10:05 1015 29.97 844 24.92 7.3 45.2 32 -8.5 16.8
10:10 1015 29.97 844 24.92 7.2 45 33 -8.2 17.2
10:15 1015 29.97 844 24.92 6.7 44.1 35 -7.7 18.1
10:20 1015 29.97 844 24.92 6.3 43.3 35 -8 17.6
10:25 1015 29.97 844 24.92 6.2 43.1 34 -8.4 16.9
10:30 1015 29.97 844 24.92 6 42.9 37 -7.7 18.2
10:35 1015 29.97 844 24.92 6.5 43.7 35 -8 17.7
10:40 1015 29.97 844 24.92 7.1 44.8 34 -7.7 18.1
10:45 1015 29.97 844 24.92 7 44.6 37 -6.9 19.6
10:50 1015 29.97 844 24.92 7.5 45.6 34 -7.4 18.6
10:55 1015 29.97 844 24.92 7.8 46 34 -7.3 18.8
11:00 1015 29.97 844 24.92 7.7 45.8 32 -7.9 17.8
11:05 1015 29.97 844 24.92 7.7 45.8 32 -7.9 17.7
11:10 1015 29.97 844 24.92 7.9 46.3 31 -8 17.5
11:15 1014 29.94 844 24.92 8.4 47.2 30 -8.3 17
11:20 1014 29.94 844 24.92 8.9 48.1 29 -8.1 17.4
11:25 1014 29.94 844 24.92 9.3 48.8 29 -7.7 18.2
11:30 1014 29.94 844 24.92 10.1 50.1 29 -7.3 18.8
11:35 1014 29.94 844 24.92 10.2 50.3 29 -7 19.3
11:40 1014 29.94 843 24.89 10.3 50.6 29 -6.7 19.9
11:45 1014 29.94 843 24.89 10.9 51.6 29 -6.6 20.1
11:50 1014 29.94 843 24.89 10.1 50.1 28 -7.4 18.6
11:55 1014 29.94 843 24.89 10.5 51 28 -7.4 18.7
12:00 1014 29.94 843 24.89 10.6 51.1 27 -7.4 18.7
12:05 1014 29.94 843 24.89 10.8 51.4 27 -7.6 18.3
12:10 1014 29.94 843 24.89 11.5 52.6 26 -7.6 18.4
12:15 1014 29.94 843 24.89 11.9 53.5 25 -7.5 18.5
12:20 1014 29.94 843 24.89 12.1 53.8 25 -7.2 19
12:25 1014 29.94 843 24.89 12 53.5 26 -7.1 19.3
12:30 1014 29.94 843 24.89 11.7 53 26 -7.2 19.1
12:35 1014 29.94 843 24.89 11.6 52.9 26 -7.2 19.1
12:40 1013 29.91 843 24.89 11.6 52.9 27 -6.8 19.7
12:45 1013 29.91 843 24.89 12.1 53.8 25 -7.3 18.8
12:50 1013 29.91 842 24.86 12.8 55 24 -7.2 19.1
12:55 1013 29.91 842 24.86 13.4 56.1 24 -6.8 19.7
13:00 1013 29.91 842 24.86 13.1 55.5 23 -7.3 18.8
13:05 1013 29.91 842 24.86 12.6 54.6 25 -6.8 19.8
13:10 1013 29.91 842 24.86 12.3 54.2 26 -6.7 19.9
13:15 1013 29.91 842 24.86 12.2 53.9 26 -6.8 19.7
13:20 1013 29.91 842 24.86 12.4 54.3 25 -6.9 19.5
13:25 1013 29.91 842 24.86 11.9 53.4 26 -7 19.3
13:30 1013 29.91 842 24.86 10.9 51.6 28 -7.1 19.3
13:35 1013 29.91 842 24.86 10.7 51.3 31 -5.7 21.7
13:40 1013 29.91 842 24.86 10.5 50.8 30 -6.3 20.7
13:45 1013 29.91 842 24.86 11 51.9 30 -6 21.2
13:50 1013 29.91 842 24.86 11.4 52.5 27 -7.1 19.3
13:55 1013 29.91 842 24.86 11.6 52.9 27 -6.8 19.7
14:00 1012 29.88 842 24.86 10.9 51.6 28 -6.9 19.6
14:05 1012 29.88 841 24.83 10.3 50.6 29 -6.7 19.9
14:10 1012 29.88 841 24.83 10 49.9 31 -6.4 20.5
14:15 1012 29.88 841 24.83 10 50.1 30 -6.9 19.5
14:20 1012 29.88 841 24.83 10.1 50.1 29 -7 19.4
14:25 1012 29.88 841 24.83 10.4 50.7 30 -6.6 20.2
14:30 1012 29.88 841 24.83 10.8 51.4 30 -6.3 20.7
14:35 1012 29.88 841 24.83 10.6 51.1 31 -6 21.2
14:40 1012 29.88 841 24.83 10 50.1 31 -6.1 21
14:45 1012 29.88 841 24.83 9.8 49.6 31 -6.5 20.2
14:50 1012 29.88 841 24.83 9.9 49.7 31 -6.4 20.5
14:55 1012 29.88 841 24.83 9.9 49.8 29 -7.4 18.7
15:00 1012 29.88 841 24.83 10.1 50.2 30 -6.5 20.3
15:05 1012 29.88 841 24.83 10 50.1 29 -7.1 19.2
15:10 1012 29.88 841 24.83 10.1 50.2 30 -6.8 19.8
15:15 1012 29.88 841 24.83 10.1 50.1 30 -6.6 20.2
15:20 1012 29.88 841 24.83 10 50.1 31 -6.4 20.5
15:25 1012 29.88 841 24.83 10.1 50.1 31 -6.4 20.4
15:30 1012 29.88 841 24.83 9.8 49.6 32 -6 21.2
15:35 1012 29.88 841 24.83 9.7 49.4 33 -6 21.2
15:40 1012 29.88 841 24.83 9.8 49.6 32 -6.2 20.9
15:45 1012 29.88 841 24.83 9.5 49.1 35 -5.3 22.4
15:50 1012 29.88 842 24.86 9.1 48.3 35 -5.4 22.3
15:55 1013 29.91 842 24.86 9 48.2 35 -5.7 21.7
16:00 1013 29.91 842 24.86 9.2 48.5 34 -5.8 21.5
16:05 1013 29.91 842 24.86 9.4 48.9 32 -6.6 20.1
16:10 1013 29.91 842 24.86 9.4 49 34 -5.8 21.6
16:15 1013 29.91 842 24.86 9.3 48.8 32 -6.5 20.4
16:20 1013 29.91 842 24.86 9.2 48.6 33 -6.2 20.8
16:25 1013 29.91 842 24.86 9.1 48.3 35 -5.7 21.7
16:30 1013 29.91 842 24.86 9 48.2 34 -6.1 21
16:35 1013 29.91 842 24.86 9 48.2 34 -6 21.2
16:40 1013 29.91 842 24.86 9 48.2 35 -5.8 21.6
16:45 1013 29.91 842 24.86 8.9 47.9 37 -5.2 22.7
16:50 1013 29.91 842 24.86 8.7 47.7 38 -4.8 23.3
16:55 1013 29.91 842 24.86 8.5 47.3 40 -4.3 24.2
17:00 1013 29.91 842 24.86 8.3 47 41 -4.1 24.6
17:05 1013 29.91 842 24.86 8.3 46.9 42 -3.8 25.2
17:10 1013 29.91 842 24.86 8.2 46.8 43 -3.7 25.4
17:15 1013 29.91 842 24.86 8.2 46.7 43 -3.7 25.4
17:20 1013 29.91 842 24.86 7.9 46.3 44 -3.5 25.6
17:25 1013 29.91 842 24.86 7.8 46 44 -3.8 25.2
17:30 1013 29.91 842 24.86 7.8 46 45 -3.4 25.9
17:35 1013 29.91 842 24.86 7.8 46 45 -3.5 25.6
17:40 1013 29.91 842 24.86 7.8 46 44 -3.7 25.3
17:45 1013 29.91 842 24.86 7.7 45.9 47 -3 26.6
17:50 1013 29.91 842 24.86 7.6 45.7 46 -3.3 26
17:55 1013 29.91 842 24.86 7.5 45.6 47 -3.2 26.3
18:00 1013 29.91 842 24.86 7.3 45.1 48 -2.9 26.7
18:05 1013 29.91 842 24.86 6.9 44.4 49 -2.9 26.7
18:10 1013 29.91 842 24.86 6.8 44.2 49 -3.1 26.4
18:15 1013 29.91 842 24.86 6.8 44.2 49 -3.1 26.5
18:20 1013 29.91 842 24.86 6.8 44.2 49 -3.3 26.1
18:25 1013 29.91 842 24.86 6.9 44.3 48 -3.4 25.8
18:30 1013 29.91 842 24.86 6.9 44.4 48 -3.3 26.1
18:35 1013 29.91 842 24.86 6.9 44.4 48 -3.3 26.1
18:40 1013 29.91 842 24.86 6.9 44.5 48 -3.3 26
18:45 1013 29.91 842 24.86 7 44.5 47 -3.4 25.8
18:50 1013 29.91 842 24.86 7 44.6 47 -3.5 25.7
18:55 1013 29.91 842 24.86 7.1 44.8 46 -3.6 25.5
19:00 1013 29.91 842 24.86 7.2 44.9 46 -3.6 25.6
19:05 1013 29.91 842 24.86 7.1 44.8 47 -3.3 26
19:10 1013 29.91 842 24.86 7 44.5 47 -3.5 25.7
19:15 1013 29.91 842 24.86 7 44.6 47 -3.7 25.4
19:20 1013 29.91 842 24.86 7.2 44.9 46 -3.8 25.2
19:25 1013 29.91 842 24.86 7.3 45.2 45 -3.9 24.9
19:30 1013 29.91 842 24.86 7.5 45.4 44 -4.1 24.5
19:35 1013 29.91 842 24.86 7.5 45.6 44 -3.9 25.1
19:40 1013 29.91 842 24.86 7.6 45.6 45 -3.7 25.3
19:45 1013 29.91 842 24.86 7.5 45.6 45 -3.6 25.5
19:50 1013 29.91 842 24.86 7.4 45.3 46 -3.4 25.8
19:55 1013 29.91 842 24.86 7.3 45.1 47 -3.2 26.2
20:00 1013 29.91 842 24.86 7.3 45.1 48 -3.1 26.3
20:05 1013 29.91 842 24.86 7.2 44.9 49 -2.9 26.8
20:10 1013 29.91 842 24.86 6.9 44.4 51 -2.6 27.3
20:15 1013 29.91 842 24.86 6.7 44.1 52 -2.4 27.7
20:20 1013 29.91 842 24.86 6.4 43.5 52 -2.8 27
20:25 1013 29.91 842 24.86 6.4 43.6 49 -3.4 25.9
20:30 1013 29.91 842 24.86 6.8 44.2 49 -3.1 26.5
20:35 1013 29.91 842 24.86 6.8 44.3 49 -3.2 26.2
20:40 1013 29.91 842 24.86 7 44.6 49 -2.9 26.7
20:45 1013 29.91 842 24.86 7 44.6 50 -2.7 27.2
20:50 1013 29.91 842 24.86 7 44.5 49 -2.9 26.8
20:55 1013 29.91 842 24.86 7 44.5 50 -2.6 27.3
21:00 1012 29.88 842 24.86 6.9 44.4 49 -3 26.6
21:05 1012 29.88 842 24.86 6.9 44.4 50 -2.7 27.1
21:10 1012 29.88 842 24.86 6.8 44.3 51 -2.7 27.2
21:15 1012 29.88 842 24.86 6.8 44.2 53 -2.1 28.1
21:20 1012 29.88 842 24.86 6.8 44.3 53 -2.2 28
21:25 1012 29.88 842 24.86 6.9 44.3 52 -2.3 27.9
21:30 1012 29.88 841 24.83 6.9 44.4 52 -2.3 27.8
21:35 1012 29.88 841 24.83 7.1 44.7 52 -2.2 28
21:40 1012 29.88 841 24.83 7 44.7 52 -2.1 28.3
21:45 1012 29.88 842 24.86 7.1 44.7 53 -1.9 28.6
21:50 1012 29.88 841 24.83 7 44.5 54 -1.8 28.8
21:55 1012 29.88 841 24.83 6.9 44.4 53 -2 28.5
22:00 1012 29.88 841 24.83 6.9 44.4 53 -1.9 28.6
22:05 1012 29.88 841 24.83 7.1 44.9 51 -2.3 27.8
22:10 1012 29.88 841 24.83 7.7 45.9 47 -2.7 27.1
22:15 1012 29.88 841 24.83 8.4 47.1 46 -2.6 27.3
22:20 1012 29.88 841 24.83 8.8 47.8 45 -2.5 27.5
22:25 1012 29.88 841 24.83 8.9 48 44 -2.8 27
22:30 1012 29.88 841 24.83 8.8 47.9 46 -2 28.4
22:35 1012 29.88 841 24.83 8.3 47 47 -2.2 28
22:40 1012 29.88 841 24.83 8.1 46.6 48 -2.3 27.8
22:45 1012 29.88 841 24.83 8 46.3 47 -2.7 27.1
22:50 1012 29.88 841 24.83 8.3 46.9 47 -2.5 27.5
22:55 1012 29.88 841 24.83 8.4 47.1 46 -2.7 27.2
23:00 1012 29.88 841 24.83 8.4 47.2 47 -2.2 28
23:05 1012 29.88 841 24.83 8.1 46.5 48 -2.2 28.1
23:10 1011 29.85 841 24.83 7.9 46.2 49 -2.1 28.2
23:15 1011 29.85 841 24.83 7.7 45.8 50 -2 28.4
23:20 1011 29.85 840 24.81 7.6 45.7 49 -2.3 27.8
23:25 1011 29.85 840 24.81 7.8 46.1 48 -2.5 27.6
23:30 1011 29.85 840 24.81 8.1 46.6 47 -2.4 27.6
23:35 1011 29.85 840 24.81 7.9 46.2 49 -2.1 28.3
23:40 1011 29.85 840 24.81 7.8 46 46 -3.1 26.4
23:45 1011 29.85 840 24.81 8.5 47.2 46 -2.6 27.4
23:50 1011 29.85 840 24.81 8.5 47.2 46 -2.5 27.6
23:55 1011 29.85 840 24.81 8.4 47.2 46 -2.4 27.6
24:00 1010 29.83 840 24.81 8.3 46.9 47 -2.3 27.9